Terminal Aerodrome Forecast
Issued by NWS

Home | Current Version | Previous Version | Text Only | Print | Product List | Glossary Off
Versions: 1 2 3 4 5 6 7 8 9 10 11 12 13 14 15 16 17 18 19

424
FTUS43 KABR 200540
TAFMBG
TAF
KMBG 200540Z 2006/2106 01011KT 3SM -SN OVC035
      TEMPO 2006/2010 2SM -SN OVC025
     FM201200 33010KT P6SM BKN035
     FM210000 28008KT P6SM SCT150=

USA.gov is the U.S. government's official web portal to all federal, state and local government web resources and services.